CDT,Max TemperatureF,Mean TemperatureF,Min TemperatureF,Max Dew PointF,MeanDew PointF,Min DewpointF,Max Humidity, Mean Humidity, Min Humidity, Max Sea Level PressureIn, Mean Sea Level PressureIn, Min Sea Level PressureIn, Max VisibilityMiles, Mean VisibilityMiles, Min VisibilityMiles, Max Wind SpeedMPH, Mean Wind SpeedMPH, Max Gust SpeedMPH,PrecipitationIn, CloudCover, Events, WindDirDegrees
2013-6-1,77,70,60,70,61,55,94,78,57,30.00,29.86,29.68,10,10,7,28,11,38,0.41,4,Thunderstorm,267
2013-6-2,66,60,53,55,53,52,94,77,64,30.06,30.03,29.98,10,10,7,12,5,16,0.00,4,,3
2013-6-3,78,64,50,59,54,46,94,70,44,30.06,29.99,29.91,10,9,0,8,3,,0.00,1,,134
2013-6-4,78,70,62,64,59,55,83,74,61,30.00,29.95,29.91,10,10,10,14,8,16,0.00,1,,132
2013-6-5,78,70,62,64,62,57,94,77,61,30.03,29.92,29.87,10,10,5,15,6,22,0.44,2,Thunderstorm,296
2013-6-6,73,66,59,61,58,55,94,77,57,29.95,29.92,29.89,10,9,0,14,4,17,0.00,4,,352
2013-6-7,75,64,53,55,53,48,94,66,38,30.00,29.95,29.91,10,10,9,13,3,18,0.00,1,,4
2013-6-8,80,66,53,57,55,50,94,63,42,29.97,29.92,29.86,10,10,5,12,3,16,0.00,0,,169
2013-6-9,80,72,64,63,58,55,83,62,42,29.92,29.88,29.85,10,10,10,12,6,18,0.00,2,,231
2013-6-10,89,76,64,68,63,55,78,62,40,29.95,29.91,29.87,10,10,10,16,7,22,0.00,1,,233
2013-6-11,91,80,69,68,65,63,78,59,38,30.03,29.97,29.93,10,10,10,17,7,23,0.00,0,,199
2013-6-12,89,81,73,70,67,66,78,64,46,30.02,29.96,29.93,10,10,10,22,11,30,0.00,0,,210
2013-6-13,87,79,71,70,66,61,83,65,40,30.05,30.00,29.96,10,10,10,10,5,,0.00,0,,345
2013-6-14,91,80,69,72,68,64,83,68,52,30.05,30.00,29.95,10,10,10,10,6,16,0.00,1,,165
2013-6-15,89,79,69,72,67,63,88,70,52,30.06,30.02,29.97,10,10,10,15,7,22,0.19,2,Thunderstorm,171
2013-6-16,87,78,69,70,67,63,88,73,55,30.03,29.99,29.93,10,10,9,15,6,20,0.02,3,,183
2013-6-17,73,70,66,66,65,63,94,83,73,29.99,29.95,29.89,10,10,4,10,5,,0.39,5,Thunderstorm,36
2013-6-18,84,74,64,66,63,61,94,71,45,30.06,30.01,29.96,10,8,0,10,4,,0.00,1,,56
2013-6-19,86,74,62,66,62,57,94,67,42,30.08,30.03,29.99,10,10,10,12,3,17,0.00,1,,142
2013-6-20,89,78,66,70,66,61,88,67,49,30.10,30.05,30.01,10,10,10,14,7,20,0.00,0,,158
2013-6-21,89,81,73,72,70,68,88,67,49,30.11,30.06,30.02,10,10,10,15,9,21,0.00,1,,178
2013-6-22,87,80,73,72,68,66,83,66,49,30.10,30.03,29.97,10,10,10,15,8,18,0.00,0,,175
2013-6-23,89,80,71,70,68,64,88,66,46,30.03,30.00,29.94,10,10,10,17,9,25,0.00,1,,171
2013-6-24,89,81,73,70,67,64,78,64,46,30.08,30.02,29.97,10,10,10,15,8,22,0.00,0,,181
2013-6-25,87,81,75,70,67,64,78,63,49,30.00,29.95,29.87,10,10,10,18,10,31,0.00,0,,188
2013-6-26,91,83,75,75,70,66,84,67,52,29.96,29.91,29.86,10,10,8,17,9,24,0.03,0,Thunderstorm,216
2013-6-27,96,84,71,73,71,70,94,66,41,30.01,29.96,29.89,10,10,8,8,4,,0.00,0,,220
2013-6-28,91,82,73,73,66,57,83,60,38,29.98,29.91,29.86,10,10,10,14,7,17,0.00,0,,331
2013-6-29,84,74,64,57,54,50,77,47,30,29.92,29.87,29.83,10,10,10,21,7,29,0.00,0,,335
2013-6-30,78,70,62,59,56,52,77,60,44,29.99,29.92,29.86,10,10,10,15,7,21,0.00,3,,2